الصفحة الرئيسية
METAR-TAF:

METAR-TAF

مطار :

Viru-Viru, بوليفيا

دائرة عرض: 17-38S, خط طول: 063-08W, ارتفاع: 373 متر

مراقبة الطقس الحالي

تاريخ ووقت الإصدار 33 دقيقة قبل الساعة 21:00UTC
ريح 13 عقدة من الجنوب/الجنوب الشرقي تتزايد حتى 23 عقدة
درجة الحرارة 10°درجة مئوية
الرطوبة 76%
ضغط 1027 hPa
الرؤية 10 كم أو أكثر
غيوم متفرقة على ارتفاع 3000 قدم
ملبد بالغيوم على ارتفاع 7000 قدم

METAR: SLVR 122100Z 16013G23KT 9999 SCT030 OVC070 10/06 Q1027

زمن: 17:33 (21:33 UTC)

توقعات

تاريخ ووقت الإصدار 5ساعات و 3 دقيقة قبل الساعة 16:30UTC
التوقعات صالحة من12 الساعة 18 UTC إلى 13 الساعة 18 UTC
ريح 20 عقدة من الجنوب تتزايد حتى 30 عقدة
الرؤية 10 كم أو أكثر
غيوم مفككة على ارتفاع 3000 قدم
ملبد بالغيوم على ارتفاع 7000 قدم
أصبح
من 12 الساعة 21 UTC إلى 13 الساعة 00 UTC
ريح 10 عقدة من الجنوب
أصبح
من 13 الساعة 12 UTC إلى 13 الساعة 15 UTC
ريح 15 عقدة من الجنوب/الجنوب الشرقي
غيوم مفككة على ارتفاع 7000 قدم

TAF: SLVR 121630Z 1218/1318 18020G30KT 9999 BKN030 OVC070 TX12/1219Z TN10/1311Z BECMG 1221/1300 17010KT BECMG 1312/1315 16015KT BKN070

أرصاد الطقس والتوقعات من أكثر من 4000 مطار (تقارير الطقس للمطار METAR والتنبؤ بالطقس بالمطارTAF).

المحطات المتاحة هي النقط الصفراء والحمراء على الخريطة.

حرك المؤشر فوق النقطة لمعرفة اسم المحطة.

ثم انقر لمعرفة أرصاد وتوقعات الطقس.

لتغيير الخارطة: اضغط على الأزرار الخضراء مع رمز الصليب الأسود للتكبير. على الزر الأخضر مع شرطة للتصغير، أو على الأسهم الخضراء للخرائط المجاورة.


METAR-TAF: